sensor_id;sensor_type;location;lat;lon;timestamp;P1;durP1;ratioP1;P2;durP2;ratioP2
70102;SDS011;57470;50.034;15.256;2023-02-28T00:00:10;8.68;;;1.40;;
70102;SDS011;57470;50.034;15.256;2023-02-28T00:02:38;3.58;;;1.80;;
70102;SDS011;57470;50.034;15.256;2023-02-28T00:05:04;1.73;;;0.50;;
70102;SDS011;57470;50.034;15.256;2023-02-28T00:07:31;4.05;;;0.82;;
70102;SDS011;57470;50.034;15.256;2023-02-28T00:09:57;4.15;;;1.42;;
70102;SDS011;57470;50.034;15.256;2023-02-28T00:12:22;4.37;;;1.77;;
70102;SDS011;57470;50.034;15.256;2023-02-28T00:14:48;3.00;;;1.08;;
70102;SDS011;57470;50.034;15.256;2023-02-28T00:17:13;4.67;;;1.87;;
70102;SDS011;57470;50.034;15.256;2023-02-28T00:19:39;4.57;;;1.45;;
70102;SDS011;57470;50.034;15.256;2023-02-28T00:22:04;8.07;;;2.55;;
70102;SDS011;57470;50.034;15.256;2023-02-28T00:24:30;3.30;;;1.10;;
70102;SDS011;57470;50.034;15.256;2023-02-28T00:26:55;4.43;;;1.40;;
70102;SDS011;57470;50.034;15.256;2023-02-28T00:29:21;2.47;;;1.03;;
70102;SDS011;57470;50.034;15.256;2023-02-28T00:31:46;5.13;;;1.50;;
70102;SDS011;57470;50.034;15.256;2023-02-28T00:34:11;10.03;;;1.40;;
70102;SDS011;57470;50.034;15.256;2023-02-28T00:36:37;2.30;;;0.77;;
70102;SDS011;57470;50.034;15.256;2023-02-28T00:39:03;3.73;;;1.37;;
70102;SDS011;57470;50.034;15.256;2023-02-28T00:41:28;2.22;;;0.73;;
70102;SDS011;57470;50.034;15.256;2023-02-28T00:43:54;3.23;;;1.47;;
70102;SDS011;57470;50.034;15.256;2023-02-28T00:46:19;4.57;;;1.63;;
70102;SDS011;57470;50.034;15.256;2023-02-28T00:48:44;3.63;;;1.63;;
70102;SDS011;57470;50.034;15.256;2023-02-28T00:51:10;2.20;;;0.82;;
70102;SDS011;57470;50.034;15.256;2023-02-28T00:53:35;2.97;;;0.82;;
70102;SDS011;57470;50.034;15.256;2023-02-28T00:56:02;3.60;;;1.17;;
70102;SDS011;57470;50.034;15.256;2023-02-28T00:58:28;2.35;;;0.45;;
70102;SDS011;57470;50.034;15.256;2023-02-28T01:00:54;3.50;;;1.43;;
70102;SDS011;57470;50.034;15.256;2023-02-28T01:03:20;4.78;;;1.02;;
70102;SDS011;57470;50.034;15.256;2023-02-28T01:05:46;7.00;;;1.85;;
70102;SDS011;57470;50.034;15.256;2023-02-28T01:08:12;3.17;;;1.20;;
70102;SDS011;57470;50.034;15.256;2023-02-28T01:10:38;2.27;;;0.80;;
70102;SDS011;57470;50.034;15.256;2023-02-28T01:13:04;5.30;;;1.90;;
70102;SDS011;57470;50.034;15.256;2023-02-28T01:15:29;3.40;;;1.30;;
70102;SDS011;57470;50.034;15.256;2023-02-28T01:17:56;4.13;;;1.25;;
70102;SDS011;57470;50.034;15.256;2023-02-28T01:20:22;3.43;;;1.37;;
70102;SDS011;57470;50.034;15.256;2023-02-28T01:22:48;3.65;;;1.52;;
70102;SDS011;57470;50.034;15.256;2023-02-28T01:25:13;2.67;;;0.77;;
70102;SDS011;57470;50.034;15.256;2023-02-28T01:27:39;5.47;;;1.60;;
70102;SDS011;57470;50.034;15.256;2023-02-28T01:30:05;2.53;;;0.93;;
70102;SDS011;57470;50.034;15.256;2023-02-28T01:32:31;2.47;;;1.17;;
70102;SDS011;57470;50.034;15.256;2023-02-28T01:34:57;4.53;;;1.57;;
70102;SDS011;57470;50.034;15.256;2023-02-28T01:37:22;8.63;;;1.38;;
70102;SDS011;57470;50.034;15.256;2023-02-28T01:39:48;3.15;;;1.55;;
70102;SDS011;57470;50.034;15.256;2023-02-28T01:42:13;3.10;;;1.03;;
70102;SDS011;57470;50.034;15.256;2023-02-28T01:47:32;5.45;;;2.67;;
70102;SDS011;57470;50.034;15.256;2023-02-28T01:50:02;5.05;;;1.30;;
70102;SDS011;57470;50.034;15.256;2023-02-28T01:52:30;3.88;;;2.03;;
70102;SDS011;57470;50.034;15.256;2023-02-28T01:54:58;4.17;;;1.27;;
70102;SDS011;57470;50.034;15.256;2023-02-28T01:57:28;4.55;;;1.88;;
70102;SDS011;57470;50.034;15.256;2023-02-28T02:00:04;4.25;;;1.58;;
70102;SDS011;57470;50.034;15.256;2023-02-28T02:02:38;2.00;;;0.73;;
70102;SDS011;57470;50.034;15.256;2023-02-28T02:05:10;5.25;;;1.70;;
70102;SDS011;57470;50.034;15.256;2023-02-28T02:07:39;4.73;;;1.80;;
70102;SDS011;57470;50.034;15.256;2023-02-28T02:10:16;2.05;;;0.55;;
70102;SDS011;57470;50.034;15.256;2023-02-28T02:19:15;3.08;;;1.33;;
70102;SDS011;57470;50.034;15.256;2023-02-28T02:26:51;4.60;;;2.03;;
70102;SDS011;57470;50.034;15.256;2023-02-28T02:40:23;3.13;;;1.75;;
70102;SDS011;57470;50.034;15.256;2023-02-28T02:43:35;2.67;;;1.08;;
70102;SDS011;57470;50.034;15.256;2023-02-28T02:45:49;8.77;;;1.30;;
70102;SDS011;57470;50.034;15.256;2023-02-28T02:48:21;4.27;;;0.97;;
70102;SDS011;57470;50.034;15.256;2023-02-28T02:50:55;2.95;;;0.68;;
70102;SDS011;57470;50.034;15.256;2023-02-28T02:53:29;6.22;;;1.92;;
70102;SDS011;57470;50.034;15.256;2023-02-28T02:56:01;2.90;;;0.82;;
70102;SDS011;57470;50.034;15.256;2023-02-28T02:58:30;3.40;;;1.67;;
70102;SDS011;57470;50.034;15.256;2023-02-28T03:01:01;2.83;;;1.10;;
70102;SDS011;57470;50.034;15.256;2023-02-28T03:03:30;3.30;;;0.60;;
70102;SDS011;57470;50.034;15.256;2023-02-28T03:05:59;3.90;;;1.48;;
70102;SDS011;57470;50.034;15.256;2023-02-28T03:08:27;4.22;;;1.75;;
70102;SDS011;57470;50.034;15.256;2023-02-28T03:10:57;2.45;;;0.70;;
70102;SDS011;57470;50.034;15.256;2023-02-28T03:13:37;2.63;;;0.73;;
70102;SDS011;57470;50.034;15.256;2023-02-28T03:18:59;10.25;;;1.52;;
70102;SDS011;57470;50.034;15.256;2023-02-28T03:21:31;2.22;;;0.65;;
70102;SDS011;57470;50.034;15.256;2023-02-28T03:24:07;4.28;;;0.50;;
70102;SDS011;57470;50.034;15.256;2023-02-28T03:26:38;2.43;;;0.70;;
70102;SDS011;57470;50.034;15.256;2023-02-28T03:29:13;2.42;;;0.63;;
70102;SDS011;57470;50.034;15.256;2023-02-28T03:31:50;4.07;;;0.88;;
70102;SDS011;57470;50.034;15.256;2023-02-28T03:34:42;4.82;;;2.00;;
70102;SDS011;57470;50.034;15.256;2023-02-28T03:37:32;7.35;;;1.50;;
70102;SDS011;57470;50.034;15.256;2023-02-28T03:40:07;3.03;;;1.13;;
70102;SDS011;57470;50.034;15.256;2023-02-28T03:42:37;3.58;;;1.30;;
70102;SDS011;57470;50.034;15.256;2023-02-28T03:45:16;5.60;;;1.65;;
70102;SDS011;57470;50.034;15.256;2023-02-28T03:50:26;2.80;;;1.02;;
70102;SDS011;57470;50.034;15.256;2023-02-28T03:53:06;4.67;;;1.10;;
70102;SDS011;57470;50.034;15.256;2023-02-28T03:55:44;3.03;;;0.98;;
70102;SDS011;57470;50.034;15.256;2023-02-28T04:01:13;2.60;;;0.85;;
70102;SDS011;57470;50.034;15.256;2023-02-28T04:03:45;2.03;;;0.85;;
70102;SDS011;57470;50.034;15.256;2023-02-28T04:06:30;4.10;;;1.37;;
70102;SDS011;57470;50.034;15.256;2023-02-28T04:08:57;3.47;;;1.05;;
70102;SDS011;57470;50.034;15.256;2023-02-28T04:11:23;10.63;;;2.10;;
70102;SDS011;57470;50.034;15.256;2023-02-28T04:13:55;6.93;;;2.25;;
70102;SDS011;57470;50.034;15.256;2023-02-28T04:16:20;4.93;;;1.03;;
70102;SDS011;57470;50.034;15.256;2023-02-28T04:18:46;3.37;;;1.07;;
70102;SDS011;57470;50.034;15.256;2023-02-28T04:21:11;3.40;;;1.17;;
70102;SDS011;57470;50.034;15.256;2023-02-28T04:23:37;5.78;;;1.55;;
70102;SDS011;57470;50.034;15.256;2023-02-28T04:26:03;2.53;;;0.97;;
70102;SDS011;57470;50.034;15.256;2023-02-28T04:28:29;7.53;;;2.42;;
70102;SDS011;57470;50.034;15.256;2023-02-28T04:30:57;2.80;;;0.98;;
70102;SDS011;57470;50.034;15.256;2023-02-28T04:33:24;4.13;;;1.60;;
70102;SDS011;57470;50.034;15.256;2023-02-28T04:36:03;6.18;;;2.13;;
70102;SDS011;57470;50.034;15.256;2023-02-28T04:38:32;10.10;;;1.73;;
70102;SDS011;57470;50.034;15.256;2023-02-28T04:40:59;4.75;;;1.33;;
70102;SDS011;57470;50.034;15.256;2023-02-28T04:43:25;8.80;;;1.30;;
70102;SDS011;57470;50.034;15.256;2023-02-28T04:45:52;3.33;;;1.10;;
70102;SDS011;57470;50.034;15.256;2023-02-28T04:48:17;4.00;;;1.52;;
70102;SDS011;57470;50.034;15.256;2023-02-28T04:50:43;2.47;;;0.90;;
70102;SDS011;57470;50.034;15.256;2023-02-28T04:53:08;2.97;;;0.80;;
70102;SDS011;57470;50.034;15.256;2023-02-28T04:55:34;4.88;;;1.67;;
70102;SDS011;57470;50.034;15.256;2023-02-28T04:57:59;12.05;;;1.58;;
70102;SDS011;57470;50.034;15.256;2023-02-28T05:00:25;2.47;;;0.73;;
70102;SDS011;57470;50.034;15.256;2023-02-28T05:02:50;8.43;;;1.40;;
70102;SDS011;57470;50.034;15.256;2023-02-28T05:05:15;3.40;;;1.70;;
70102;SDS011;57470;50.034;15.256;2023-02-28T05:07:43;2.33;;;1.13;;
70102;SDS011;57470;50.034;15.256;2023-02-28T05:10:09;3.58;;;1.02;;
70102;SDS011;57470;50.034;15.256;2023-02-28T05:12:35;2.40;;;0.73;;
70102;SDS011;57470;50.034;15.256;2023-02-28T05:15:00;2.90;;;1.23;;
70102;SDS011;57470;50.034;15.256;2023-02-28T05:17:27;3.30;;;1.02;;
70102;SDS011;57470;50.034;15.256;2023-02-28T05:19:52;8.63;;;1.47;;
70102;SDS011;57470;50.034;15.256;2023-02-28T05:22:17;4.17;;;1.83;;
70102;SDS011;57470;50.034;15.256;2023-02-28T05:24:43;5.53;;;2.23;;
70102;SDS011;57470;50.034;15.256;2023-02-28T05:27:08;2.30;;;0.70;;
70102;SDS011;57470;50.034;15.256;2023-02-28T05:29:34;10.02;;;1.45;;
70102;SDS011;57470;50.034;15.256;2023-02-28T05:32:06;2.97;;;0.98;;
70102;SDS011;57470;50.034;15.256;2023-02-28T05:34:33;6.03;;;1.05;;
70102;SDS011;57470;50.034;15.256;2023-02-28T05:36:59;2.63;;;1.10;;
70102;SDS011;57470;50.034;15.256;2023-02-28T05:39:24;2.70;;;1.37;;
70102;SDS011;57470;50.034;15.256;2023-02-28T05:41:50;12.07;;;1.00;;
70102;SDS011;57470;50.034;15.256;2023-02-28T05:44:15;2.53;;;0.52;;
70102;SDS011;57470;50.034;15.256;2023-02-28T05:46:40;3.13;;;1.25;;
70102;SDS011;57470;50.034;15.256;2023-02-28T05:49:06;4.03;;;1.43;;
70102;SDS011;57470;50.034;15.256;2023-02-28T05:51:31;5.00;;;2.60;;
70102;SDS011;57470;50.034;15.256;2023-02-28T05:54:00;6.47;;;1.43;;
70102;SDS011;57470;50.034;15.256;2023-02-28T05:56:26;10.30;;;2.40;;
70102;SDS011;57470;50.034;15.256;2023-02-28T05:58:51;14.67;;;6.40;;
70102;SDS011;57470;50.034;15.256;2023-02-28T06:01:23;11.00;;;6.03;;
70102;SDS011;57470;50.034;15.256;2023-02-28T06:03:49;10.65;;;5.47;;
70102;SDS011;57470;50.034;15.256;2023-02-28T06:06:15;6.22;;;2.08;;
70102;SDS011;57470;50.034;15.256;2023-02-28T06:08:40;3.33;;;1.10;;
70102;SDS011;57470;50.034;15.256;2023-02-28T06:11:08;3.70;;;1.73;;
70102;SDS011;57470;50.034;15.256;2023-02-28T06:13:34;3.57;;;1.60;;
70102;SDS011;57470;50.034;15.256;2023-02-28T06:16:02;2.53;;;0.97;;
70102;SDS011;57470;50.034;15.256;2023-02-28T06:18:28;5.07;;;2.10;;
70102;SDS011;57470;50.034;15.256;2023-02-28T06:20:53;15.82;;;1.17;;
70102;SDS011;57470;50.034;15.256;2023-02-28T06:23:20;6.10;;;1.25;;
70102;SDS011;57470;50.034;15.256;2023-02-28T06:25:46;4.60;;;2.40;;
70102;SDS011;57470;50.034;15.256;2023-02-28T06:28:11;3.45;;;1.15;;
70102;SDS011;57470;50.034;15.256;2023-02-28T06:30:37;4.33;;;1.40;;
70102;SDS011;57470;50.034;15.256;2023-02-28T06:33:03;2.85;;;1.23;;
70102;SDS011;57470;50.034;15.256;2023-02-28T06:35:28;2.33;;;0.73;;
70102;SDS011;57470;50.034;15.256;2023-02-28T06:37:54;4.43;;;1.65;;
70102;SDS011;57470;50.034;15.256;2023-02-28T06:40:20;3.90;;;1.33;;
70102;SDS011;57470;50.034;15.256;2023-02-28T06:42:45;5.33;;;2.13;;
70102;SDS011;57470;50.034;15.256;2023-02-28T06:45:11;6.57;;;1.23;;
70102;SDS011;57470;50.034;15.256;2023-02-28T06:47:37;5.40;;;2.35;;
70102;SDS011;57470;50.034;15.256;2023-02-28T06:50:04;5.13;;;2.03;;
70102;SDS011;57470;50.034;15.256;2023-02-28T06:52:31;6.05;;;1.98;;
70102;SDS011;57470;50.034;15.256;2023-02-28T06:54:56;5.07;;;2.13;;
70102;SDS011;57470;50.034;15.256;2023-02-28T06:57:31;8.75;;;3.30;;
70102;SDS011;57470;50.034;15.256;2023-02-28T06:59:57;5.80;;;2.65;;
70102;SDS011;57470;50.034;15.256;2023-02-28T07:02:24;6.20;;;2.37;;
70102;SDS011;57470;50.034;15.256;2023-02-28T07:04:49;9.02;;;3.53;;
70102;SDS011;57470;50.034;15.256;2023-02-28T07:07:15;6.63;;;2.97;;
70102;SDS011;57470;50.034;15.256;2023-02-28T07:09:40;4.90;;;1.30;;
70102;SDS011;57470;50.034;15.256;2023-02-28T07:12:06;6.67;;;2.63;;
70102;SDS011;57470;50.034;15.256;2023-02-28T07:14:31;7.82;;;3.13;;
70102;SDS011;57470;50.034;15.256;2023-02-28T07:16:56;7.93;;;2.57;;
70102;SDS011;57470;50.034;15.256;2023-02-28T07:19:22;5.27;;;2.20;;
70102;SDS011;57470;50.034;15.256;2023-02-28T07:21:47;7.47;;;2.73;;
70102;SDS011;57470;50.034;15.256;2023-02-28T07:24:12;7.07;;;2.47;;
70102;SDS011;57470;50.034;15.256;2023-02-28T07:26:40;7.50;;;2.92;;
70102;SDS011;57470;50.034;15.256;2023-02-28T07:29:06;8.63;;;2.67;;
70102;SDS011;57470;50.034;15.256;2023-02-28T07:31:31;5.70;;;2.10;;
70102;SDS011;57470;50.034;15.256;2023-02-28T07:33:57;6.53;;;2.70;;
70102;SDS011;57470;50.034;15.256;2023-02-28T07:36:22;10.20;;;3.20;;
70102;SDS011;57470;50.034;15.256;2023-02-28T07:38:48;8.00;;;3.33;;
70102;SDS011;57470;50.034;15.256;2023-02-28T07:41:18;6.83;;;2.53;;
70102;SDS011;57470;50.034;15.256;2023-02-28T07:43:45;6.00;;;2.45;;
70102;SDS011;57470;50.034;15.256;2023-02-28T07:46:11;5.15;;;1.80;;
70102;SDS011;57470;50.034;15.256;2023-02-28T07:48:40;6.50;;;2.37;;
70102;SDS011;57470;50.034;15.256;2023-02-28T07:51:05;9.45;;;2.70;;
70102;SDS011;57470;50.034;15.256;2023-02-28T07:53:30;5.53;;;1.80;;
70102;SDS011;57470;50.034;15.256;2023-02-28T07:55:59;7.17;;;2.57;;
70102;SDS011;57470;50.034;15.256;2023-02-28T07:58:26;5.45;;;2.55;;
70102;SDS011;57470;50.034;15.256;2023-02-28T08:00:53;8.38;;;2.80;;
70102;SDS011;57470;50.034;15.256;2023-02-28T08:03:19;6.43;;;2.17;;
70102;SDS011;57470;50.034;15.256;2023-02-28T08:05:45;5.15;;;2.53;;
70102;SDS011;57470;50.034;15.256;2023-02-28T08:08:12;4.78;;;1.70;;
70102;SDS011;57470;50.034;15.256;2023-02-28T08:10:38;5.30;;;2.37;;
70102;SDS011;57470;50.034;15.256;2023-02-28T08:13:04;5.37;;;1.87;;
70102;SDS011;57470;50.034;15.256;2023-02-28T08:15:29;4.95;;;2.33;;
70102;SDS011;57470;50.034;15.256;2023-02-28T08:17:54;11.00;;;2.43;;
70102;SDS011;57470;50.034;15.256;2023-02-28T08:20:21;4.78;;;1.35;;
70102;SDS011;57470;50.034;15.256;2023-02-28T08:22:48;6.35;;;2.15;;
70102;SDS011;57470;50.034;15.256;2023-02-28T08:25:14;8.40;;;2.40;;
70102;SDS011;57470;50.034;15.256;2023-02-28T08:27:39;7.53;;;1.92;;
70102;SDS011;57470;50.034;15.256;2023-02-28T08:30:05;4.27;;;1.67;;
70102;SDS011;57470;50.034;15.256;2023-02-28T08:32:33;5.55;;;2.25;;
70102;SDS011;57470;50.034;15.256;2023-02-28T08:34:58;6.00;;;2.00;;
70102;SDS011;57470;50.034;15.256;2023-02-28T08:37:24;3.13;;;1.33;;
70102;SDS011;57470;50.034;15.256;2023-02-28T08:39:50;5.85;;;2.67;;
70102;SDS011;57470;50.034;15.256;2023-02-28T08:42:16;8.30;;;2.97;;
70102;SDS011;57470;50.034;15.256;2023-02-28T08:44:41;6.97;;;2.17;;
70102;SDS011;57470;50.034;15.256;2023-02-28T08:47:06;5.68;;;1.50;;
70102;SDS011;57470;50.034;15.256;2023-02-28T08:49:32;3.20;;;0.93;;
70102;SDS011;57470;50.034;15.256;2023-02-28T08:51:58;4.47;;;1.73;;
70102;SDS011;57470;50.034;15.256;2023-02-28T08:54:23;2.80;;;0.90;;
70102;SDS011;57470;50.034;15.256;2023-02-28T08:56:49;6.38;;;2.33;;
70102;SDS011;57470;50.034;15.256;2023-02-28T08:59:15;3.63;;;1.20;;
70102;SDS011;57470;50.034;15.256;2023-02-28T09:01:40;5.18;;;1.92;;
70102;SDS011;57470;50.034;15.256;2023-02-28T09:04:06;5.00;;;1.65;;
70102;SDS011;57470;50.034;15.256;2023-02-28T09:06:33;7.50;;;2.63;;
70102;SDS011;57470;50.034;15.256;2023-02-28T09:08:59;4.38;;;1.63;;
70102;SDS011;57470;50.034;15.256;2023-02-28T09:11:26;5.82;;;2.13;;
70102;SDS011;57470;50.034;15.256;2023-02-28T09:13:53;12.27;;;2.85;;
70102;SDS011;57470;50.034;15.256;2023-02-28T09:16:20;8.75;;;1.65;;
70102;SDS011;57470;50.034;15.256;2023-02-28T09:18:46;3.30;;;1.20;;
70102;SDS011;57470;50.034;15.256;2023-02-28T09:21:13;3.33;;;1.17;;
70102;SDS011;57470;50.034;15.256;2023-02-28T09:23:43;5.07;;;2.33;;
70102;SDS011;57470;50.034;15.256;2023-02-28T09:26:16;5.50;;;1.92;;
70102;SDS011;57470;50.034;15.256;2023-02-28T09:28:47;6.32;;;2.47;;
70102;SDS011;57470;50.034;15.256;2023-02-28T09:31:14;7.57;;;2.60;;
70102;SDS011;57470;50.034;15.256;2023-02-28T09:33:40;5.18;;;1.65;;
70102;SDS011;57470;50.034;15.256;2023-02-28T09:36:06;3.13;;;1.13;;
70102;SDS011;57470;50.034;15.256;2023-02-28T09:38:31;3.93;;;1.53;;
70102;SDS011;57470;50.034;15.256;2023-02-28T09:41:02;6.28;;;2.45;;
70102;SDS011;57470;50.034;15.256;2023-02-28T09:43:35;3.00;;;1.00;;
70102;SDS011;57470;50.034;15.256;2023-02-28T09:46:53;5.33;;;2.07;;
70102;SDS011;57470;50.034;15.256;2023-02-28T09:49:11;16.73;;;1.92;;
70102;SDS011;57470;50.034;15.256;2023-02-28T09:51:42;3.25;;;1.20;;
70102;SDS011;57470;50.034;15.256;2023-02-28T09:54:21;3.63;;;1.38;;
70102;SDS011;57470;50.034;15.256;2023-02-28T09:56:52;3.97;;;1.95;;
70102;SDS011;57470;50.034;15.256;2023-02-28T10:05:09;4.07;;;1.45;;
70102;SDS011;57470;50.034;15.256;2023-02-28T10:10:45;6.00;;;2.30;;
70102;SDS011;57470;50.034;15.256;2023-02-28T10:13:31;8.07;;;1.73;;
70102;SDS011;57470;50.034;15.256;2023-02-28T10:16:02;3.53;;;1.08;;
70102;SDS011;57470;50.034;15.256;2023-02-28T10:21:13;3.70;;;1.45;;
70102;SDS011;57470;50.034;15.256;2023-02-28T10:23:44;7.65;;;1.77;;
70102;SDS011;57470;50.034;15.256;2023-02-28T10:26:13;4.40;;;1.53;;
70102;SDS011;57470;50.034;15.256;2023-02-28T10:28:41;4.65;;;1.73;;
70102;SDS011;57470;50.034;15.256;2023-02-28T10:31:08;6.35;;;1.52;;
70102;SDS011;57470;50.034;15.256;2023-02-28T10:33:45;6.63;;;1.70;;
70102;SDS011;57470;50.034;15.256;2023-02-28T10:36:14;4.55;;;2.20;;
70102;SDS011;57470;50.034;15.256;2023-02-28T10:38:41;4.87;;;1.80;;
70102;SDS011;57470;50.034;15.256;2023-02-28T10:41:08;5.63;;;1.33;;
70102;SDS011;57470;50.034;15.256;2023-02-28T10:43:36;4.65;;;2.03;;
70102;SDS011;57470;50.034;15.256;2023-02-28T10:51:34;4.23;;;1.27;;
70102;SDS011;57470;50.034;15.256;2023-02-28T10:54:04;8.82;;;2.92;;
70102;SDS011;57470;50.034;15.256;2023-02-28T10:56:31;2.40;;;0.73;;
70102;SDS011;57470;50.034;15.256;2023-02-28T11:03:57;9.43;;;3.53;;
70102;SDS011;57470;50.034;15.256;2023-02-28T11:06:29;8.07;;;2.58;;
70102;SDS011;57470;50.034;15.256;2023-02-28T11:09:02;10.40;;;4.05;;
70102;SDS011;57470;50.034;15.256;2023-02-28T11:11:47;6.88;;;2.78;;
70102;SDS011;57470;50.034;15.256;2023-02-28T11:16:45;3.42;;;0.93;;
70102;SDS011;57470;50.034;15.256;2023-02-28T11:19:16;3.67;;;1.23;;
70102;SDS011;57470;50.034;15.256;2023-02-28T11:21:49;4.35;;;1.80;;
70102;SDS011;57470;50.034;15.256;2023-02-28T11:27:00;11.90;;;2.05;;
70102;SDS011;57470;50.034;15.256;2023-02-28T11:29:30;6.30;;;2.07;;
70102;SDS011;57470;50.034;15.256;2023-02-28T11:34:46;4.57;;;1.85;;
70102;SDS011;57470;50.034;15.256;2023-02-28T11:37:24;6.25;;;2.80;;
70102;SDS011;57470;50.034;15.256;2023-02-28T11:39:52;4.20;;;1.40;;
70102;SDS011;57470;50.034;15.256;2023-02-28T11:56:03;7.97;;;3.40;;
70102;SDS011;57470;50.034;15.256;2023-02-28T11:58:40;5.85;;;2.50;;
70102;SDS011;57470;50.034;15.256;2023-02-28T12:04:18;7.20;;;2.45;;
70102;SDS011;57470;50.034;15.256;2023-02-28T12:07:20;6.97;;;3.00;;
70102;SDS011;57470;50.034;15.256;2023-02-28T12:12:35;7.10;;;2.60;;
70102;SDS011;57470;50.034;15.256;2023-02-28T12:20:15;5.55;;;2.08;;
70102;SDS011;57470;50.034;15.256;2023-02-28T12:23:07;4.90;;;2.03;;
70102;SDS011;57470;50.034;15.256;2023-02-28T12:25:40;6.80;;;2.45;;
70102;SDS011;57470;50.034;15.256;2023-02-28T12:28:10;6.50;;;2.08;;
70102;SDS011;57470;50.034;15.256;2023-02-28T12:31:01;4.88;;;1.65;;
70102;SDS011;57470;50.034;15.256;2023-02-28T12:33:36;5.03;;;1.88;;
70102;SDS011;57470;50.034;15.256;2023-02-28T12:36:09;8.70;;;2.03;;
70102;SDS011;57470;50.034;15.256;2023-02-28T12:38:51;5.30;;;1.05;;
70102;SDS011;57470;50.034;15.256;2023-02-28T12:41:40;10.90;;;2.75;;
70102;SDS011;57470;50.034;15.256;2023-02-28T12:44:17;8.63;;;2.17;;
70102;SDS011;57470;50.034;15.256;2023-02-28T12:46:58;7.65;;;2.15;;
70102;SDS011;57470;50.034;15.256;2023-02-28T12:49:31;2.43;;;0.60;;
70102;SDS011;57470;50.034;15.256;2023-02-28T12:52:10;6.97;;;2.15;;
70102;SDS011;57470;50.034;15.256;2023-02-28T12:54:47;5.70;;;2.50;;
70102;SDS011;57470;50.034;15.256;2023-02-28T12:57:34;7.55;;;3.03;;
70102;SDS011;57470;50.034;15.256;2023-02-28T13:00:23;5.18;;;2.05;;
70102;SDS011;57470;50.034;15.256;2023-02-28T13:03:17;6.37;;;2.60;;
70102;SDS011;57470;50.034;15.256;2023-02-28T13:06:53;6.22;;;2.53;;
70102;SDS011;57470;50.034;15.256;2023-02-28T13:09:19;7.60;;;2.30;;
70102;SDS011;57470;50.034;15.256;2023-02-28T13:11:46;3.45;;;1.45;;
70102;SDS011;57470;50.034;15.256;2023-02-28T13:17:02;4.80;;;1.60;;
70102;SDS011;57470;50.034;15.256;2023-02-28T13:19:55;7.38;;;2.72;;
70102;SDS011;57470;50.034;15.256;2023-02-28T13:27:46;10.95;;;4.75;;
70102;SDS011;57470;50.034;15.256;2023-02-28T13:38:43;9.82;;;2.83;;
70102;SDS011;57470;50.034;15.256;2023-02-28T13:44:00;8.13;;;2.83;;
70102;SDS011;57470;50.034;15.256;2023-02-28T13:46:29;11.15;;;3.22;;
70102;SDS011;57470;50.034;15.256;2023-02-28T13:48:56;7.07;;;3.28;;
70102;SDS011;57470;50.034;15.256;2023-02-28T13:51:38;10.13;;;2.63;;
70102;SDS011;57470;50.034;15.256;2023-02-28T13:54:21;17.17;;;5.65;;
70102;SDS011;57470;50.034;15.256;2023-02-28T13:57:06;15.00;;;5.95;;
70102;SDS011;57470;50.034;15.256;2023-02-28T14:05:35;20.87;;;6.40;;
70102;SDS011;57470;50.034;15.256;2023-02-28T14:08:05;13.05;;;4.30;;
70102;SDS011;57470;50.034;15.256;2023-02-28T14:10:45;10.18;;;4.25;;
70102;SDS011;57470;50.034;15.256;2023-02-28T14:13:14;10.90;;;3.05;;
70102;SDS011;57470;50.034;15.256;2023-02-28T14:16:09;5.57;;;2.63;;
70102;SDS011;57470;50.034;15.256;2023-02-28T14:18:40;7.30;;;3.53;;
70102;SDS011;57470;50.034;15.256;2023-02-28T14:21:16;7.60;;;2.95;;
70102;SDS011;57470;50.034;15.256;2023-02-28T14:37:46;4.10;;;1.83;;
70102;SDS011;57470;50.034;15.256;2023-02-28T14:40:19;7.07;;;2.75;;
70102;SDS011;57470;50.034;15.256;2023-02-28T14:42:55;8.70;;;3.55;;
70102;SDS011;57470;50.034;15.256;2023-02-28T14:45:26;8.63;;;3.17;;
70102;SDS011;57470;50.034;15.256;2023-02-28T14:47:55;4.55;;;2.15;;
70102;SDS011;57470;50.034;15.256;2023-02-28T14:50:31;7.72;;;3.25;;
70102;SDS011;57470;50.034;15.256;2023-02-28T14:52:59;39.55;;;3.17;;
70102;SDS011;57470;50.034;15.256;2023-02-28T14:55:28;7.07;;;2.97;;
70102;SDS011;57470;50.034;15.256;2023-02-28T14:57:57;7.10;;;3.58;;
70102;SDS011;57470;50.034;15.256;2023-02-28T15:00:47;10.95;;;3.83;;
70102;SDS011;57470;50.034;15.256;2023-02-28T15:05:56;8.85;;;3.47;;
70102;SDS011;57470;50.034;15.256;2023-02-28T15:08:23;4.13;;;1.42;;
70102;SDS011;57470;50.034;15.256;2023-02-28T15:10:57;7.82;;;2.40;;
70102;SDS011;57470;50.034;15.256;2023-02-28T15:13:42;6.35;;;3.00;;
70102;SDS011;57470;50.034;15.256;2023-02-28T15:16:20;8.17;;;2.73;;
70102;SDS011;57470;50.034;15.256;2023-02-28T15:19:00;13.27;;;5.20;;
70102;SDS011;57470;50.034;15.256;2023-02-28T15:21:31;5.93;;;2.17;;
70102;SDS011;57470;50.034;15.256;2023-02-28T15:26:50;6.05;;;2.30;;
70102;SDS011;57470;50.034;15.256;2023-02-28T15:29:23;8.80;;;3.67;;
70102;SDS011;57470;50.034;15.256;2023-02-28T15:32:04;9.80;;;3.22;;
70102;SDS011;57470;50.034;15.256;2023-02-28T15:34:35;13.95;;;5.15;;
70102;SDS011;57470;50.034;15.256;2023-02-28T15:37:06;10.48;;;4.35;;
70102;SDS011;57470;50.034;15.256;2023-02-28T15:39:50;19.50;;;7.43;;
70102;SDS011;57470;50.034;15.256;2023-02-28T15:42:20;19.67;;;7.13;;
70102;SDS011;57470;50.034;15.256;2023-02-28T15:44:47;19.33;;;6.68;;
70102;SDS011;57470;50.034;15.256;2023-02-28T15:47:23;11.70;;;4.40;;
70102;SDS011;57470;50.034;15.256;2023-02-28T15:52:23;10.77;;;3.95;;
70102;SDS011;57470;50.034;15.256;2023-02-28T15:54:53;11.57;;;5.88;;
70102;SDS011;57470;50.034;15.256;2023-02-28T15:57:21;17.57;;;4.07;;
70102;SDS011;57470;50.034;15.256;2023-02-28T16:00:00;21.23;;;5.72;;
70102;SDS011;57470;50.034;15.256;2023-02-28T16:02:38;14.82;;;4.68;;
70102;SDS011;57470;50.034;15.256;2023-02-28T16:07:33;49.55;;;16.65;;
70102;SDS011;57470;50.034;15.256;2023-02-28T16:10:01;22.20;;;11.82;;
70102;SDS011;57470;50.034;15.256;2023-02-28T16:12:27;14.65;;;6.07;;
70102;SDS011;57470;50.034;15.256;2023-02-28T16:14:56;9.77;;;4.20;;
70102;SDS011;57470;50.034;15.256;2023-02-28T16:17:28;6.90;;;2.00;;
70102;SDS011;57470;50.034;15.256;2023-02-28T16:19:56;8.45;;;2.33;;
70102;SDS011;57470;50.034;15.256;2023-02-28T16:22:22;10.18;;;4.32;;
70102;SDS011;57470;50.034;15.256;2023-02-28T16:24:47;10.57;;;4.60;;
70102;SDS011;57470;50.034;15.256;2023-02-28T16:27:30;10.00;;;3.97;;
70102;SDS011;57470;50.034;15.256;2023-02-28T16:29:57;10.27;;;3.40;;
70102;SDS011;57470;50.034;15.256;2023-02-28T16:32:23;7.75;;;3.03;;
70102;SDS011;57470;50.034;15.256;2023-02-28T16:34:49;5.90;;;2.13;;
70102;SDS011;57470;50.034;15.256;2023-02-28T16:37:15;6.07;;;2.40;;
70102;SDS011;57470;50.034;15.256;2023-02-28T16:39:43;6.38;;;2.00;;
70102;SDS011;57470;50.034;15.256;2023-02-28T16:42:20;6.95;;;2.97;;
70102;SDS011;57470;50.034;15.256;2023-02-28T16:44:49;6.03;;;1.53;;
70102;SDS011;57470;50.034;15.256;2023-02-28T16:47:15;9.27;;;2.78;;
70102;SDS011;57470;50.034;15.256;2023-02-28T16:49:40;7.23;;;2.27;;
70102;SDS011;57470;50.034;15.256;2023-02-28T16:52:07;5.40;;;2.65;;
70102;SDS011;57470;50.034;15.256;2023-02-28T16:54:33;7.05;;;2.53;;
70102;SDS011;57470;50.034;15.256;2023-02-28T16:56:59;7.47;;;2.53;;
70102;SDS011;57470;50.034;15.256;2023-02-28T16:59:24;8.07;;;3.07;;
70102;SDS011;57470;50.034;15.256;2023-02-28T17:01:52;5.90;;;1.90;;
70102;SDS011;57470;50.034;15.256;2023-02-28T17:04:18;4.07;;;1.45;;
70102;SDS011;57470;50.034;15.256;2023-02-28T17:06:43;3.77;;;1.30;;